sensor_id;sensor_type;location;lat;lon;timestamp;P1;durP1;ratioP1;P2;durP2;ratioP2
40707;SDS011;26392;42.696;23.350;2022-09-29T00:01:36;5.43;;;2.22;;
40707;SDS011;26392;42.696;23.350;2022-09-29T00:04:01;3.70;;;2.17;;
40707;SDS011;26392;42.696;23.350;2022-09-29T00:06:27;4.85;;;2.22;;
40707;SDS011;26392;42.696;23.350;2022-09-29T00:08:52;5.90;;;2.30;;
40707;SDS011;26392;42.696;23.350;2022-09-29T00:11:18;3.15;;;2.45;;
40707;SDS011;26392;42.696;23.350;2022-09-29T00:13:44;6.25;;;2.40;;
40707;SDS011;26392;42.696;23.350;2022-09-29T00:16:10;5.20;;;2.10;;
40707;SDS011;26392;42.696;23.350;2022-09-29T00:18:36;6.20;;;2.70;;
40707;SDS011;26392;42.696;23.350;2022-09-29T00:21:13;3.33;;;2.40;;
40707;SDS011;26392;42.696;23.350;2022-09-29T00:23:45;4.90;;;2.53;;
40707;SDS011;26392;42.696;23.350;2022-09-29T00:26:20;3.47;;;2.10;;
40707;SDS011;26392;42.696;23.350;2022-09-29T00:31:14;4.82;;;2.50;;
40707;SDS011;26392;42.696;23.350;2022-09-29T00:33:39;3.63;;;2.50;;
40707;SDS011;26392;42.696;23.350;2022-09-29T00:36:06;7.47;;;2.80;;
40707;SDS011;26392;42.696;23.350;2022-09-29T00:38:34;3.58;;;2.65;;
40707;SDS011;26392;42.696;23.350;2022-09-29T00:41:00;3.92;;;2.33;;
40707;SDS011;26392;42.696;23.350;2022-09-29T00:49:19;6.88;;;3.05;;
40707;SDS011;26392;42.696;23.350;2022-09-29T00:54:15;11.27;;;2.45;;
40707;SDS011;26392;42.696;23.350;2022-09-29T00:56:41;5.18;;;2.55;;
40707;SDS011;26392;42.696;23.350;2022-09-29T00:59:11;5.25;;;2.45;;
40707;SDS011;26392;42.696;23.350;2022-09-29T01:01:40;5.80;;;2.42;;
40707;SDS011;26392;42.696;23.350;2022-09-29T01:04:08;4.30;;;2.58;;
40707;SDS011;26392;42.696;23.350;2022-09-29T01:06:50;6.53;;;2.55;;
40707;SDS011;26392;42.696;23.350;2022-09-29T01:09:20;6.60;;;2.63;;
40707;SDS011;26392;42.696;23.350;2022-09-29T01:11:49;7.18;;;2.88;;
40707;SDS011;26392;42.696;23.350;2022-09-29T01:14:17;6.00;;;2.20;;
40707;SDS011;26392;42.696;23.350;2022-09-29T01:16:44;4.57;;;2.63;;
40707;SDS011;26392;42.696;23.350;2022-09-29T01:19:15;7.95;;;2.70;;
40707;SDS011;26392;42.696;23.350;2022-09-29T01:22:26;10.38;;;2.63;;
40707;SDS011;26392;42.696;23.350;2022-09-29T01:41:55;4.75;;;2.65;;
40707;SDS011;26392;42.696;23.350;2022-09-29T01:47:09;16.15;;;4.10;;
40707;SDS011;26392;42.696;23.350;2022-09-29T01:49:40;6.95;;;3.33;;
40707;SDS011;26392;42.696;23.350;2022-09-29T01:52:19;8.40;;;3.22;;
40707;SDS011;26392;42.696;23.350;2022-09-29T01:54:49;6.00;;;2.80;;
40707;SDS011;26392;42.696;23.350;2022-09-29T01:58:01;5.63;;;3.08;;
40707;SDS011;26392;42.696;23.350;2022-09-29T02:00:17;10.20;;;3.45;;
40707;SDS011;26392;42.696;23.350;2022-09-29T02:02:49;8.70;;;3.50;;
40707;SDS011;26392;42.696;23.350;2022-09-29T02:05:24;7.32;;;3.58;;
40707;SDS011;26392;42.696;23.350;2022-09-29T02:07:56;9.93;;;4.35;;
40707;SDS011;26392;42.696;23.350;2022-09-29T02:10:30;4.72;;;3.30;;
40707;SDS011;26392;42.696;23.350;2022-09-29T02:12:59;8.98;;;3.42;;
40707;SDS011;26392;42.696;23.350;2022-09-29T02:15:33;5.93;;;3.05;;
40707;SDS011;26392;42.696;23.350;2022-09-29T02:18:04;4.90;;;2.85;;
40707;SDS011;26392;42.696;23.350;2022-09-29T02:20:35;5.45;;;2.58;;
40707;SDS011;26392;42.696;23.350;2022-09-29T02:23:00;4.05;;;2.67;;
40707;SDS011;26392;42.696;23.350;2022-09-29T02:25:26;4.63;;;2.90;;
40707;SDS011;26392;42.696;23.350;2022-09-29T02:27:51;6.03;;;3.25;;
40707;SDS011;26392;42.696;23.350;2022-09-29T02:30:17;7.30;;;3.83;;
40707;SDS011;26392;42.696;23.350;2022-09-29T02:32:43;7.18;;;3.88;;
40707;SDS011;26392;42.696;23.350;2022-09-29T02:35:09;6.97;;;3.17;;
40707;SDS011;26392;42.696;23.350;2022-09-29T02:46:13;4.95;;;3.72;;
40707;SDS011;26392;42.696;23.350;2022-09-29T02:51:59;6.75;;;3.85;;
40707;SDS011;26392;42.696;23.350;2022-09-29T02:54:53;11.77;;;4.10;;
40707;SDS011;26392;42.696;23.350;2022-09-29T02:58:09;14.93;;;4.28;;
40707;SDS011;26392;42.696;23.350;2022-09-29T03:00:34;7.80;;;4.25;;
40707;SDS011;26392;42.696;23.350;2022-09-29T03:03:00;5.57;;;3.90;;
40707;SDS011;26392;42.696;23.350;2022-09-29T03:05:25;7.95;;;4.75;;
40707;SDS011;26392;42.696;23.350;2022-09-29T03:07:51;8.95;;;4.53;;
40707;SDS011;26392;42.696;23.350;2022-09-29T03:10:16;8.05;;;4.95;;
40707;SDS011;26392;42.696;23.350;2022-09-29T03:12:43;8.65;;;4.63;;
40707;SDS011;26392;42.696;23.350;2022-09-29T03:15:09;7.15;;;4.43;;
40707;SDS011;26392;42.696;23.350;2022-09-29T03:17:36;6.82;;;4.05;;
40707;SDS011;26392;42.696;23.350;2022-09-29T03:20:02;7.35;;;4.07;;
40707;SDS011;26392;42.696;23.350;2022-09-29T03:22:29;8.82;;;3.92;;
40707;SDS011;26392;42.696;23.350;2022-09-29T03:24:54;10.48;;;4.25;;
40707;SDS011;26392;42.696;23.350;2022-09-29T03:27:19;7.47;;;4.90;;
40707;SDS011;26392;42.696;23.350;2022-09-29T03:29:45;10.70;;;4.65;;
40707;SDS011;26392;42.696;23.350;2022-09-29T03:32:10;8.60;;;4.65;;
40707;SDS011;26392;42.696;23.350;2022-09-29T03:34:36;9.55;;;5.13;;
40707;SDS011;26392;42.696;23.350;2022-09-29T03:37:02;10.65;;;5.10;;
40707;SDS011;26392;42.696;23.350;2022-09-29T03:39:27;11.68;;;5.18;;
40707;SDS011;26392;42.696;23.350;2022-09-29T03:41:53;8.77;;;5.03;;
40707;SDS011;26392;42.696;23.350;2022-09-29T03:44:18;11.60;;;5.10;;
40707;SDS011;26392;42.696;23.350;2022-09-29T03:46:44;9.65;;;4.82;;
40707;SDS011;26392;42.696;23.350;2022-09-29T03:49:11;9.65;;;4.65;;
40707;SDS011;26392;42.696;23.350;2022-09-29T03:51:37;12.38;;;5.22;;
40707;SDS011;26392;42.696;23.350;2022-09-29T03:54:03;7.38;;;4.35;;
40707;SDS011;26392;42.696;23.350;2022-09-29T03:56:29;7.97;;;4.53;;
40707;SDS011;26392;42.696;23.350;2022-09-29T03:58:55;13.10;;;5.40;;
40707;SDS011;26392;42.696;23.350;2022-09-29T04:01:21;11.02;;;4.80;;
40707;SDS011;26392;42.696;23.350;2022-09-29T04:03:46;7.53;;;4.85;;
40707;SDS011;26392;42.696;23.350;2022-09-29T04:06:12;9.98;;;4.72;;
40707;SDS011;26392;42.696;23.350;2022-09-29T04:08:37;8.52;;;5.25;;
40707;SDS011;26392;42.696;23.350;2022-09-29T04:11:03;11.55;;;5.55;;
40707;SDS011;26392;42.696;23.350;2022-09-29T04:13:29;9.38;;;5.32;;
40707;SDS011;26392;42.696;23.350;2022-09-29T04:15:58;16.92;;;4.53;;
40707;SDS011;26392;42.696;23.350;2022-09-29T04:18:24;12.68;;;5.50;;
40707;SDS011;26392;42.696;23.350;2022-09-29T04:20:50;9.90;;;5.78;;
40707;SDS011;26392;42.696;23.350;2022-09-29T04:23:16;13.82;;;5.22;;
40707;SDS011;26392;42.696;23.350;2022-09-29T04:25:42;12.30;;;5.68;;
40707;SDS011;26392;42.696;23.350;2022-09-29T04:28:09;11.93;;;5.72;;
40707;SDS011;26392;42.696;23.350;2022-09-29T04:30:35;11.50;;;5.63;;
40707;SDS011;26392;42.696;23.350;2022-09-29T04:33:00;9.38;;;5.65;;
40707;SDS011;26392;42.696;23.350;2022-09-29T04:35:26;16.42;;;5.60;;
40707;SDS011;26392;42.696;23.350;2022-09-29T04:37:54;9.02;;;4.82;;
40707;SDS011;26392;42.696;23.350;2022-09-29T04:40:24;16.15;;;5.00;;
40707;SDS011;26392;42.696;23.350;2022-09-29T04:42:50;7.40;;;4.57;;
40707;SDS011;26392;42.696;23.350;2022-09-29T04:45:15;9.52;;;4.35;;
40707;SDS011;26392;42.696;23.350;2022-09-29T04:47:41;15.65;;;5.10;;
40707;SDS011;26392;42.696;23.350;2022-09-29T04:50:07;12.88;;;5.28;;
40707;SDS011;26392;42.696;23.350;2022-09-29T04:52:33;9.45;;;3.88;;
40707;SDS011;26392;42.696;23.350;2022-09-29T04:55:00;8.30;;;4.43;;
40707;SDS011;26392;42.696;23.350;2022-09-29T04:57:25;13.32;;;4.45;;
40707;SDS011;26392;42.696;23.350;2022-09-29T04:59:50;9.57;;;4.30;;
40707;SDS011;26392;42.696;23.350;2022-09-29T05:02:17;10.65;;;4.10;;
40707;SDS011;26392;42.696;23.350;2022-09-29T05:04:43;15.50;;;4.70;;
40707;SDS011;26392;42.696;23.350;2022-09-29T05:07:09;10.63;;;4.95;;
40707;SDS011;26392;42.696;23.350;2022-09-29T05:09:35;12.80;;;4.47;;
40707;SDS011;26392;42.696;23.350;2022-09-29T05:12:00;9.18;;;4.15;;
40707;SDS011;26392;42.696;23.350;2022-09-29T05:14:26;6.70;;;3.92;;
40707;SDS011;26392;42.696;23.350;2022-09-29T05:16:53;12.73;;;3.83;;
40707;SDS011;26392;42.696;23.350;2022-09-29T05:19:19;9.90;;;3.70;;
40707;SDS011;26392;42.696;23.350;2022-09-29T05:21:44;10.57;;;4.18;;
40707;SDS011;26392;42.696;23.350;2022-09-29T05:24:11;11.25;;;3.78;;
40707;SDS011;26392;42.696;23.350;2022-09-29T05:26:36;8.30;;;4.10;;
40707;SDS011;26392;42.696;23.350;2022-09-29T05:29:02;17.80;;;4.40;;
40707;SDS011;26392;42.696;23.350;2022-09-29T05:31:27;11.63;;;3.75;;
40707;SDS011;26392;42.696;23.350;2022-09-29T05:33:53;12.13;;;4.03;;
40707;SDS011;26392;42.696;23.350;2022-09-29T05:36:20;8.90;;;4.10;;
40707;SDS011;26392;42.696;23.350;2022-09-29T05:38:46;13.70;;;5.13;;
40707;SDS011;26392;42.696;23.350;2022-09-29T05:41:11;10.95;;;4.28;;
40707;SDS011;26392;42.696;23.350;2022-09-29T05:43:37;15.95;;;4.75;;
40707;SDS011;26392;42.696;23.350;2022-09-29T05:46:04;10.90;;;4.00;;
40707;SDS011;26392;42.696;23.350;2022-09-29T05:48:31;7.22;;;3.70;;
40707;SDS011;26392;42.696;23.350;2022-09-29T05:50:58;11.38;;;4.40;;
40707;SDS011;26392;42.696;23.350;2022-09-29T05:53:24;10.77;;;4.68;;
40707;SDS011;26392;42.696;23.350;2022-09-29T05:55:50;13.38;;;4.75;;
40707;SDS011;26392;42.696;23.350;2022-09-29T05:58:16;11.50;;;4.32;;
40707;SDS011;26392;42.696;23.350;2022-09-29T06:00:41;7.00;;;3.83;;
40707;SDS011;26392;42.696;23.350;2022-09-29T06:03:07;8.93;;;3.80;;
40707;SDS011;26392;42.696;23.350;2022-09-29T06:05:32;11.55;;;4.47;;
40707;SDS011;26392;42.696;23.350;2022-09-29T06:08:03;12.75;;;3.83;;
40707;SDS011;26392;42.696;23.350;2022-09-29T06:10:29;18.50;;;4.70;;
40707;SDS011;26392;42.696;23.350;2022-09-29T06:12:55;9.65;;;4.15;;
40707;SDS011;26392;42.696;23.350;2022-09-29T06:15:21;11.77;;;4.45;;
40707;SDS011;26392;42.696;23.350;2022-09-29T06:17:47;12.75;;;4.05;;
40707;SDS011;26392;42.696;23.350;2022-09-29T06:20:12;7.85;;;4.15;;
40707;SDS011;26392;42.696;23.350;2022-09-29T06:22:37;11.63;;;4.13;;
40707;SDS011;26392;42.696;23.350;2022-09-29T06:25:03;12.32;;;4.25;;
40707;SDS011;26392;42.696;23.350;2022-09-29T06:27:28;12.30;;;4.13;;
40707;SDS011;26392;42.696;23.350;2022-09-29T06:29:54;10.63;;;4.53;;
40707;SDS011;26392;42.696;23.350;2022-09-29T06:32:19;8.13;;;4.28;;
40707;SDS011;26392;42.696;23.350;2022-09-29T06:34:45;8.82;;;4.22;;
40707;SDS011;26392;42.696;23.350;2022-09-29T06:37:29;7.55;;;4.53;;
40707;SDS011;26392;42.696;23.350;2022-09-29T06:40:03;14.95;;;5.25;;
40707;SDS011;26392;42.696;23.350;2022-09-29T06:42:30;12.15;;;5.15;;
40707;SDS011;26392;42.696;23.350;2022-09-29T06:44:56;9.48;;;4.95;;
40707;SDS011;26392;42.696;23.350;2022-09-29T06:47:21;10.38;;;4.07;;
40707;SDS011;26392;42.696;23.350;2022-09-29T06:49:47;16.48;;;4.32;;
40707;SDS011;26392;42.696;23.350;2022-09-29T06:52:14;10.25;;;4.35;;
40707;SDS011;26392;42.696;23.350;2022-09-29T06:54:40;17.60;;;4.93;;
40707;SDS011;26392;42.696;23.350;2022-09-29T06:57:05;6.20;;;3.58;;
40707;SDS011;26392;42.696;23.350;2022-09-29T06:59:31;5.82;;;3.20;;
40707;SDS011;26392;42.696;23.350;2022-09-29T07:01:56;6.07;;;2.90;;
40707;SDS011;26392;42.696;23.350;2022-09-29T07:04:22;9.20;;;3.67;;
40707;SDS011;26392;42.696;23.350;2022-09-29T07:06:48;8.32;;;3.47;;
40707;SDS011;26392;42.696;23.350;2022-09-29T07:09:13;9.45;;;3.40;;
40707;SDS011;26392;42.696;23.350;2022-09-29T07:11:43;8.13;;;3.67;;
40707;SDS011;26392;42.696;23.350;2022-09-29T07:14:13;13.10;;;4.10;;
40707;SDS011;26392;42.696;23.350;2022-09-29T07:16:43;9.45;;;3.67;;
40707;SDS011;26392;42.696;23.350;2022-09-29T07:19:09;10.52;;;4.05;;
40707;SDS011;26392;42.696;23.350;2022-09-29T07:21:34;9.27;;;3.70;;
40707;SDS011;26392;42.696;23.350;2022-09-29T07:24:00;8.30;;;3.63;;
40707;SDS011;26392;42.696;23.350;2022-09-29T07:26:26;31.05;;;4.20;;
40707;SDS011;26392;42.696;23.350;2022-09-29T07:28:52;17.52;;;3.85;;
40707;SDS011;26392;42.696;23.350;2022-09-29T07:31:19;9.10;;;3.30;;
40707;SDS011;26392;42.696;23.350;2022-09-29T07:33:46;6.05;;;3.50;;
40707;SDS011;26392;42.696;23.350;2022-09-29T07:36:13;10.70;;;3.83;;
40707;SDS011;26392;42.696;23.350;2022-09-29T07:38:40;5.18;;;2.90;;
40707;SDS011;26392;42.696;23.350;2022-09-29T07:41:07;6.65;;;3.00;;
40707;SDS011;26392;42.696;23.350;2022-09-29T07:43:35;5.72;;;2.67;;
40707;SDS011;26392;42.696;23.350;2022-09-29T07:46:01;11.02;;;3.92;;
40707;SDS011;26392;42.696;23.350;2022-09-29T07:48:27;9.48;;;3.55;;
40707;SDS011;26392;42.696;23.350;2022-09-29T07:51:04;5.50;;;2.67;;
40707;SDS011;26392;42.696;23.350;2022-09-29T07:53:33;4.97;;;2.90;;
40707;SDS011;26392;42.696;23.350;2022-09-29T07:56:10;6.57;;;2.70;;
40707;SDS011;26392;42.696;23.350;2022-09-29T07:58:38;4.20;;;2.53;;
40707;SDS011;26392;42.696;23.350;2022-09-29T08:01:05;12.85;;;3.00;;
40707;SDS011;26392;42.696;23.350;2022-09-29T08:03:34;4.13;;;2.47;;
40707;SDS011;26392;42.696;23.350;2022-09-29T08:06:11;4.72;;;2.70;;
40707;SDS011;26392;42.696;23.350;2022-09-29T08:08:37;3.15;;;2.58;;
40707;SDS011;26392;42.696;23.350;2022-09-29T08:11:04;7.07;;;2.55;;
40707;SDS011;26392;42.696;23.350;2022-09-29T08:13:35;3.53;;;2.25;;
40707;SDS011;26392;42.696;23.350;2022-09-29T08:16:02;5.68;;;2.40;;
40707;SDS011;26392;42.696;23.350;2022-09-29T08:18:30;10.93;;;2.83;;
40707;SDS011;26392;42.696;23.350;2022-09-29T08:20:56;5.60;;;2.35;;
40707;SDS011;26392;42.696;23.350;2022-09-29T08:23:22;6.75;;;2.17;;
40707;SDS011;26392;42.696;23.350;2022-09-29T08:25:48;9.05;;;2.97;;
40707;SDS011;26392;42.696;23.350;2022-09-29T08:28:14;5.47;;;3.10;;
40707;SDS011;26392;42.696;23.350;2022-09-29T08:30:40;5.28;;;2.55;;
40707;SDS011;26392;42.696;23.350;2022-09-29T08:33:06;8.30;;;2.70;;
40707;SDS011;26392;42.696;23.350;2022-09-29T08:35:36;6.03;;;2.63;;
40707;SDS011;26392;42.696;23.350;2022-09-29T08:38:02;8.52;;;3.25;;
40707;SDS011;26392;42.696;23.350;2022-09-29T08:40:28;9.30;;;3.10;;
40707;SDS011;26392;42.696;23.350;2022-09-29T08:43:05;5.85;;;2.50;;
40707;SDS011;26392;42.696;23.350;2022-09-29T08:48:16;6.15;;;2.10;;
40707;SDS011;26392;42.696;23.350;2022-09-29T08:50:46;5.47;;;2.40;;
40707;SDS011;26392;42.696;23.350;2022-09-29T08:53:20;3.47;;;2.20;;
40707;SDS011;26392;42.696;23.350;2022-09-29T08:55:50;6.53;;;2.30;;
40707;SDS011;26392;42.696;23.350;2022-09-29T08:58:18;8.32;;;2.38;;
40707;SDS011;26392;42.696;23.350;2022-09-29T09:03:20;8.43;;;2.72;;
40707;SDS011;26392;42.696;23.350;2022-09-29T09:19:34;4.57;;;1.92;;
40707;SDS011;26392;42.696;23.350;2022-09-29T09:27:57;5.15;;;1.98;;
40707;SDS011;26392;42.696;23.350;2022-09-29T09:30:25;2.25;;;1.85;;
40707;SDS011;26392;42.696;23.350;2022-09-29T09:33:00;3.47;;;2.15;;
40707;SDS011;26392;42.696;23.350;2022-09-29T09:38:10;3.22;;;2.08;;
40707;SDS011;26392;42.696;23.350;2022-09-29T09:40:44;3.05;;;2.08;;
40707;SDS011;26392;42.696;23.350;2022-09-29T09:43:17;7.38;;;2.17;;
40707;SDS011;26392;42.696;23.350;2022-09-29T09:46:02;2.60;;;1.80;;
40707;SDS011;26392;42.696;23.350;2022-09-29T09:55:00;4.18;;;1.50;;
40707;SDS011;26392;42.696;23.350;2022-09-29T10:00:35;4.63;;;1.92;;
40707;SDS011;26392;42.696;23.350;2022-09-29T10:03:06;4.03;;;1.88;;
40707;SDS011;26392;42.696;23.350;2022-09-29T10:05:34;4.50;;;1.90;;
40707;SDS011;26392;42.696;23.350;2022-09-29T10:08:04;4.43;;;1.83;;
40707;SDS011;26392;42.696;23.350;2022-09-29T10:10:31;5.15;;;2.53;;
40707;SDS011;26392;42.696;23.350;2022-09-29T10:13:00;5.95;;;2.25;;
40707;SDS011;26392;42.696;23.350;2022-09-29T10:15:28;7.45;;;2.67;;
40707;SDS011;26392;42.696;23.350;2022-09-29T10:18:02;2.90;;;2.42;;
40707;SDS011;26392;42.696;23.350;2022-09-29T10:20:35;3.53;;;1.75;;
40707;SDS011;26392;42.696;23.350;2022-09-29T10:23:18;6.03;;;2.30;;
40707;SDS011;26392;42.696;23.350;2022-09-29T10:26:18;3.97;;;1.92;;
40707;SDS011;26392;42.696;23.350;2022-09-29T10:28:43;3.63;;;2.08;;
40707;SDS011;26392;42.696;23.350;2022-09-29T10:31:46;3.20;;;2.08;;
40707;SDS011;26392;42.696;23.350;2022-09-29T10:36:49;2.95;;;1.60;;
40707;SDS011;26392;42.696;23.350;2022-09-29T10:39:30;7.47;;;1.65;;
40707;SDS011;26392;42.696;23.350;2022-09-29T10:42:03;4.32;;;2.20;;
40707;SDS011;26392;42.696;23.350;2022-09-29T10:44:40;3.53;;;2.10;;
40707;SDS011;26392;42.696;23.350;2022-09-29T10:47:06;2.83;;;1.60;;
40707;SDS011;26392;42.696;23.350;2022-09-29T10:49:39;3.22;;;1.40;;
40707;SDS011;26392;42.696;23.350;2022-09-29T10:52:05;3.47;;;2.10;;
40707;SDS011;26392;42.696;23.350;2022-09-29T10:54:51;3.58;;;1.88;;
40707;SDS011;26392;42.696;23.350;2022-09-29T10:57:22;4.40;;;2.28;;
40707;SDS011;26392;42.696;23.350;2022-09-29T10:59:51;3.10;;;1.90;;
40707;SDS011;26392;42.696;23.350;2022-09-29T11:05:10;5.90;;;1.90;;
40707;SDS011;26392;42.696;23.350;2022-09-29T11:07:42;3.13;;;1.77;;
40707;SDS011;26392;42.696;23.350;2022-09-29T11:10:25;6.32;;;2.00;;
40707;SDS011;26392;42.696;23.350;2022-09-29T11:12:55;4.60;;;3.20;;
40707;SDS011;26392;42.696;23.350;2022-09-29T11:15:27;5.18;;;3.40;;
40707;SDS011;26392;42.696;23.350;2022-09-29T11:18:04;4.68;;;2.35;;
40707;SDS011;26392;42.696;23.350;2022-09-29T11:20:43;4.03;;;2.53;;
40707;SDS011;26392;42.696;23.350;2022-09-29T11:23:16;2.80;;;1.88;;
40707;SDS011;26392;42.696;23.350;2022-09-29T11:25:57;3.72;;;1.90;;
40707;SDS011;26392;42.696;23.350;2022-09-29T11:31:26;3.63;;;1.90;;
40707;SDS011;26392;42.696;23.350;2022-09-29T11:42:28;3.67;;;2.35;;
40707;SDS011;26392;42.696;23.350;2022-09-29T11:45:08;6.85;;;1.80;;
40707;SDS011;26392;42.696;23.350;2022-09-29T11:55:37;2.22;;;1.73;;
40707;SDS011;26392;42.696;23.350;2022-09-29T12:17:06;3.28;;;1.73;;
40707;SDS011;26392;42.696;23.350;2022-09-29T12:19:36;6.03;;;2.07;;
40707;SDS011;26392;42.696;23.350;2022-09-29T12:22:06;5.10;;;2.38;;
40707;SDS011;26392;42.696;23.350;2022-09-29T12:24:35;4.50;;;2.25;;
40707;SDS011;26392;42.696;23.350;2022-09-29T12:27:06;4.40;;;2.03;;
40707;SDS011;26392;42.696;23.350;2022-09-29T12:32:24;2.70;;;1.90;;
40707;SDS011;26392;42.696;23.350;2022-09-29T12:35:14;2.15;;;1.65;;
40707;SDS011;26392;42.696;23.350;2022-09-29T12:37:55;2.88;;;1.90;;
40707;SDS011;26392;42.696;23.350;2022-09-29T12:40:36;7.03;;;2.22;;
40707;SDS011;26392;42.696;23.350;2022-09-29T12:45:43;3.67;;;1.42;;
40707;SDS011;26392;42.696;23.350;2022-09-29T12:53:54;5.05;;;1.50;;
40707;SDS011;26392;42.696;23.350;2022-09-29T12:56:42;3.88;;;1.70;;
40707;SDS011;26392;42.696;23.350;2022-09-29T13:01:49;2.03;;;1.60;;
40707;SDS011;26392;42.696;23.350;2022-09-29T13:04:28;3.53;;;1.60;;
40707;SDS011;26392;42.696;23.350;2022-09-29T13:25:42;5.47;;;1.63;;
40707;SDS011;26392;42.696;23.350;2022-09-29T13:28:32;2.97;;;1.60;;
40707;SDS011;26392;42.696;23.350;2022-09-29T13:31:03;1.95;;;1.40;;
40707;SDS011;26392;42.696;23.350;2022-09-29T13:33:32;1.98;;;1.60;;
40707;SDS011;26392;42.696;23.350;2022-09-29T13:35:58;12.13;;;2.10;;
40707;SDS011;26392;42.696;23.350;2022-09-29T13:41:08;6.05;;;2.20;;
40707;SDS011;26392;42.696;23.350;2022-09-29T13:43:38;3.08;;;1.77;;
40707;SDS011;26392;42.696;23.350;2022-09-29T13:56:46;1.87;;;1.73;;
40707;SDS011;26392;42.696;23.350;2022-09-29T13:59:13;4.03;;;2.03;;
40707;SDS011;26392;42.696;23.350;2022-09-29T14:01:42;2.05;;;1.67;;
40707;SDS011;26392;42.696;23.350;2022-09-29T14:07:34;2.42;;;1.95;;
40707;SDS011;26392;42.696;23.350;2022-09-29T14:10:03;6.20;;;1.98;;
40707;SDS011;26392;42.696;23.350;2022-09-29T14:12:38;4.30;;;1.90;;
40707;SDS011;26392;42.696;23.350;2022-09-29T14:15:05;5.85;;;2.10;;
40707;SDS011;26392;42.696;23.350;2022-09-29T14:17:36;4.78;;;1.98;;
40707;SDS011;26392;42.696;23.350;2022-09-29T14:20:15;2.30;;;1.77;;
40707;SDS011;26392;42.696;23.350;2022-09-29T14:35:38;2.08;;;1.88;;
40707;SDS011;26392;42.696;23.350;2022-09-29T14:38:13;5.30;;;1.90;;
40707;SDS011;26392;42.696;23.350;2022-09-29T14:49:02;5.75;;;2.53;;
40707;SDS011;26392;42.696;23.350;2022-09-29T14:57:38;6.95;;;2.85;;
40707;SDS011;26392;42.696;23.350;2022-09-29T15:02:57;5.00;;;2.78;;
40707;SDS011;26392;42.696;23.350;2022-09-29T15:05:30;7.00;;;2.90;;
40707;SDS011;26392;42.696;23.350;2022-09-29T15:07:58;7.20;;;3.30;;
40707;SDS011;26392;42.696;23.350;2022-09-29T15:10:37;9.25;;;3.50;;
40707;SDS011;26392;42.696;23.350;2022-09-29T15:13:46;8.15;;;3.70;;
40707;SDS011;26392;42.696;23.350;2022-09-29T15:27:02;7.97;;;4.35;;
40707;SDS011;26392;42.696;23.350;2022-09-29T15:29:29;4.65;;;3.53;;
40707;SDS011;26392;42.696;23.350;2022-09-29T15:31:55;8.95;;;3.70;;
40707;SDS011;26392;42.696;23.350;2022-09-29T15:34:21;8.75;;;3.50;;
40707;SDS011;26392;42.696;23.350;2022-09-29T15:36:54;10.77;;;4.05;;
40707;SDS011;26392;42.696;23.350;2022-09-29T15:42:14;9.30;;;5.00;;
40707;SDS011;26392;42.696;23.350;2022-09-29T15:44:51;10.13;;;5.07;;
40707;SDS011;26392;42.696;23.350;2022-09-29T15:47:25;13.32;;;4.63;;
40707;SDS011;26392;42.696;23.350;2022-09-29T15:49:53;10.85;;;4.93;;
40707;SDS011;26392;42.696;23.350;2022-09-29T15:52:19;9.85;;;5.10;;
40707;SDS011;26392;42.696;23.350;2022-09-29T15:54:47;12.38;;;4.63;;
40707;SDS011;26392;42.696;23.350;2022-09-29T15:57:31;10.45;;;3.95;;
40707;SDS011;26392;42.696;23.350;2022-09-29T16:02:46;8.05;;;4.53;;
40707;SDS011;26392;42.696;23.350;2022-09-29T16:05:16;9.15;;;4.65;;
40707;SDS011;26392;42.696;23.350;2022-09-29T16:07:48;11.63;;;4.75;;
40707;SDS011;26392;42.696;23.350;2022-09-29T16:10:18;6.82;;;4.65;;
40707;SDS011;26392;42.696;23.350;2022-09-29T16:12:52;6.40;;;4.20;;
40707;SDS011;26392;42.696;23.350;2022-09-29T16:15:25;9.37;;;4.03;;
40707;SDS011;26392;42.696;23.350;2022-09-29T16:17:53;5.93;;;4.10;;
40707;SDS011;26392;42.696;23.350;2022-09-29T16:20:22;6.15;;;4.20;;
40707;SDS011;26392;42.696;23.350;2022-09-29T16:22:53;8.57;;;4.93;;
40707;SDS011;26392;42.696;23.350;2022-09-29T16:27:52;10.55;;;5.28;;
40707;SDS011;26392;42.696;23.350;2022-09-29T16:33:33;8.88;;;4.95;;
40707;SDS011;26392;42.696;23.350;2022-09-29T16:35:45;11.25;;;4.93;;
40707;SDS011;26392;42.696;23.350;2022-09-29T16:38:28;8.00;;;5.20;;
40707;SDS011;26392;42.696;23.350;2022-09-29T16:40:58;9.70;;;5.70;;
40707;SDS011;26392;42.696;23.350;2022-09-29T16:43:30;10.38;;;5.55;;
40707;SDS011;26392;42.696;23.350;2022-09-29T16:45:56;14.68;;;5.70;;
40707;SDS011;26392;42.696;23.350;2022-09-29T16:48:25;13.20;;;6.22;;
40707;SDS011;26392;42.696;23.350;2022-09-29T16:50:56;10.27;;;5.05;;
40707;SDS011;26392;42.696;23.350;2022-09-29T16:53:25;6.82;;;3.83;;
40707;SDS011;26392;42.696;23.350;2022-09-29T16:56:15;9.45;;;3.88;;
40707;SDS011;26392;42.696;23.350;2022-09-29T16:59:11;8.25;;;4.00;;
40707;SDS011;26392;42.696;23.350;2022-09-29T17:01:41;8.00;;;4.22;;
40707;SDS011;26392;42.696;23.350;2022-09-29T17:04:08;11.30;;;4.68;;
40707;SDS011;26392;42.696;23.350;2022-09-29T17:06:35;13.00;;;4.55;;
40707;SDS011;26392;42.696;23.350;2022-09-29T17:09:01;10.43;;;5.22;;
40707;SDS011;26392;42.696;23.350;2022-09-29T17:11:28;10.95;;;4.80;;
40707;SDS011;26392;42.696;23.350;2022-09-29T17:13:53;13.98;;;4.78;;
40707;SDS011;26392;42.696;23.350;2022-09-29T17:16:21;10.90;;;5.95;;
40707;SDS011;26392;42.696;23.350;2022-09-29T17:18:51;12.93;;;5.88;;
40707;SDS011;26392;42.696;23.350;2022-09-29T17:21:18;12.43;;;5.25;;
40707;SDS011;26392;42.696;23.350;2022-09-29T17:23:44;13.23;;;5.00;;
40707;SDS011;26392;42.696;23.350;2022-09-29T17:26:13;11.15;;;5.10;;
40707;SDS011;26392;42.696;23.350;2022-09-29T17:29:02;11.20;;;5.25;;
40707;SDS011;26392;42.696;23.350;2022-09-29T17:31:28;8.63;;;4.47;;
40707;SDS011;26392;42.696;23.350;2022-09-29T17:33:53;10.80;;;4.60;;
40707;SDS011;26392;42.696;23.350;2022-09-29T17:36:19;13.23;;;4.90;;
40707;SDS011;26392;42.696;23.350;2022-09-29T17:38:46;11.73;;;5.05;;
40707;SDS011;26392;42.696;23.350;2022-09-29T17:41:12;12.00;;;4.50;;
40707;SDS011;26392;42.696;23.350;2022-09-29T17:43:40;12.57;;;4.78;;
40707;SDS011;26392;42.696;23.350;2022-09-29T17:46:10;13.60;;;4.78;;
40707;SDS011;26392;42.696;23.350;2022-09-29T17:48:37;10.88;;;5.25;;
40707;SDS011;26392;42.696;23.350;2022-09-29T17:51:02;7.20;;;4.63;;
40707;SDS011;26392;42.696;23.350;2022-09-29T17:53:29;11.38;;;6.00;;
40707;SDS011;26392;42.696;23.350;2022-09-29T17:55:55;11.32;;;5.55;;
40707;SDS011;26392;42.696;23.350;2022-09-29T17:58:21;9.95;;;5.43;;
40707;SDS011;26392;42.696;23.350;2022-09-29T18:00:48;9.27;;;5.00;;
40707;SDS011;26392;42.696;23.350;2022-09-29T18:03:16;8.30;;;5.25;;
40707;SDS011;26392;42.696;23.350;2022-09-29T18:05:43;12.48;;;5.68;;
40707;SDS011;26392;42.696;23.350;2022-09-29T18:08:15;11.43;;;5.55;;
40707;SDS011;26392;42.696;23.350;2022-09-29T18:10:43;15.65;;;5.78;;
40707;SDS011;26392;42.696;23.350;2022-09-29T18:13:12;11.75;;;6.65;;
40707;SDS011;26392;42.696;23.350;2022-09-29T18:15:38;15.07;;;6.28;;
40707;SDS011;26392;42.696;23.350;2022-09-29T18:18:04;13.73;;;6.97;;
40707;SDS011;26392;42.696;23.350;2022-09-29T18:20:32;10.05;;;5.68;;
40707;SDS011;26392;42.696;23.350;2022-09-29T18:23:00;9.18;;;5.65;;
40707;SDS011;26392;42.696;23.350;2022-09-29T18:25:27;11.15;;;6.22;;
40707;SDS011;26392;42.696;23.350;2022-09-29T18:27:54;13.48;;;5.78;;
40707;SDS011;26392;42.696;23.350;2022-09-29T18:32:47;14.32;;;6.05;;